Latest METARs, TAFs and NOTAMs for TIST


---------------------------------------------------------------------------
	(OBSERVATIONS)
TIST 160653Z AUTO 10010KT 10SM CLR 27/24 A3003 RMK AO2 SLP169
     T02670239=
TIST 160553Z AUTO 11007KT 10SM CLR 27/24 A3004 RMK AO2 SLP174
     60001 T02720244 10283 20267 56008=
TIST 160453Z AUTO 07010KT 10SM FEW037 27/24 A3005 RMK AO2  RAB23E36
    SLP175 P0001 T02720244=
---------------------------------------------------------------------------
	(TERMINAL AREA FORECAST)
TIST 160540Z 1606/1706 08010KT P6SM VCSH FEW025 SCT040
    TEMPO 1606/1608 6SM -SHRA BKN030
    FM161300 09015G25KT P6SM VCSH SCT030 BKN050
    FM162300 09010KT P6SM FEW025=
---------------------------------------------------------------------------
	(NOTAMS)


TIST 01/013 OBST TOWER LGT (ASR 1244135) 182120.80N0645651.50W
    (2.0NM NE STT) 1718.2FT (255.9FT AGL) OUT OF SERVICE. 16
    JAN 15:28 2018 UNTIL 31 JUL 23:59 2018. CREATED: 16 JAN 15:28
    2018

TIST 04/020 OBST TOWER LGT (ASR 1271367) 182032.50N0645738.20W
    (0.8NM ENE STT) 386.2FT (60.0FT AGL) OUT OF SERVICE. 16 APR
    14:21 2018 UNTIL 07 SEP 23:59 2018. CREATED: 16 APR 14:21
    2018

TIST 05/026 AD AP BIRD ACT INCREASED W SIDE. 01 JUN 04:00 2018
    UNTIL 01 SEP 03:59 2018. CREATED: 30 MAY 21:19 2018

TIST 06/013 SVC PCL RWY 10 PAPI OUT OF SERVICE. 25 JUN 17:34
    2018 UNTIL 25 JUL 20:00 2018 ESTIMATED. CREATED: 25 JUN 17:34
    2018

TIST 06/015 TWY A10 SOUTH OF TWY A AND WEST OF TWY C INT DIRECTIONAL
    SIGN NOT LGTD. 27 JUN 23:00 2018 UNTIL 27 AUG 22:00 2018.
    CREATED: 27 JUN 23:00 2018

TIST 06/016 TWY D SOUTH OF RWY 10/28 DIRECTIONAL SIGN NOT LGTD.
    27 JUN 23:02 2018 UNTIL 27 AUG 22:00 2018. CREATED: 27 JUN
    23:03 2018

TIST 06/017 RWY 10/28 NORTH OF TWY A DIRECTIONAL SIGN NOT LGTD.
    27 JUN 23:04 2018 UNTIL 27 AUG 22:00 2018. CREATED: 27 JUN
    23:04 2018

TIST 06/018 TWY C SOUTH OF RWY 10/28 DIRECTIONAL SIGN NOT LGTD.
    27 JUN 23:06 2018 UNTIL 27 AUG 22:00 2018. CREATED: 27 JUN
    23:06 2018

TIST 06/019 NAV ILS RWY 10 LOC U/S. 30 JUN 16:45 2018 UNTIL 30
    DEC 17:00 2018. CREATED: 30 JUN 16:45 2018

TIST 06/020 NAV ILS RWY 10 GP U/S. 30 JUN 17:02 2018 UNTIL 30
    DEC 17:00 2018. CREATED: 30 JUN 17:02 2018

TIST 07/005 OBST TOWER LGT (ASR 1229348) 182115.20N0645638.60W
    (2.1NM ENE STT) 1669.3FT (199.1FT AGL) OUT OF SERVICE. 04
    JUL 05:16 2018 UNTIL 19 JUL 13:00 2018. CREATED: 04 JUL 05:16
    2018

TIST 07/008 OBST TOWER LGT (ASR 1258808) 182040.60N0650131.80W
    (3.0NM W STT) 581.7FT (91.9FT AGL) OUT OF SERVICE. 07 JUL
    05:26 2018 UNTIL 22 JUL 13:00 2018. CREATED: 07 JUL 05:26
    2018

TIST 07/010 OBST TOWER LGT (ASR 1214938) 182116.00N0645641.40W
    (2.0NM ENE STT) 1583.0FT (78.1FT AGL) OUT OF SERVICE. 09
    JUL 22:42 2018 UNTIL 24 JUL 04:00 2018. CREATED: 09 JUL 22:42
    2018

TIST 07/011 OBST TOWER LGT (ASR 1234386) 182124.80N0645811.90W
    (1.2NM NE STT) 1732.0FT (250.0FT AGL) OUT OF SERVICE. 10
    JUL 02:56 2018 UNTIL 25 JUL 01:56 2018. CREATED: 10 JUL 02:55
    2018

TIST 07/012 RWY 10/28 CLSD EXC 1HR PPR 340-690-0780 DLY 0200-0900.
    12 JUL 02:00 2018 UNTIL 01 AUG 09:00 2018. CREATED: 11 JUL
    07:56 2018

TIST 07/014 NAV ILS RWY 10 LOC/GP/DME U/S. 11 JUL 20:43 2018
    UNTIL 01 AUG 18:00 2018 ESTIMATED. CREATED: 11 JUL 20:43
    2018

TIST A0165/18 AP BIRD ACT INCREASED W SIDE. 01 JUN 04:00 2018
    UNTIL 01 SEP 03:59 2018. CREATED: 30 MAY 21:25 2018

TIST A0178/18 RWY 10 PILOT CONTROLLED PAPI U/S. 25 JUN 17:34
    2018 UNTIL 25 JUL 20:00 2018 ESTIMATED. CREATED: 25 JUN 17:49
    2018

TIST A0182/18 ILS RWY 10 LOC U/S. 30 JUN 16:45 2018 UNTIL 30
    DEC 17:00 2018. CREATED: 30 JUN 16:47 2018

TIST A0183/18 ILS RWY 10 GP U/S. 30 JUN 17:02 2018 UNTIL 30 DEC
    17:00 2018. CREATED: 30 JUN 17:02 2018

TIST A0197/18 RWY 10/28 CLSD EXC 1HR PPR 340-690-0780. DLY 0200-0900,
    12 JUL 02:00 2018 UNTIL 01 AUG 09:00 2018. CREATED: 11 JUL
    07:56 2018

TIST A0199/18 ILS RWY 10 LOC/GP/DME U/S. 11 JUL 20:43 2018 UNTIL
    01 AUG 18:00 2018 ESTIMATED. CREATED: 11 JUL 20:48 2018

---------------------------------------------------------------------------